createdAt,value
2022-10-14T00:00:36.126Z,1011.48
2022-10-14T00:01:36.156Z,1011.47
2022-10-14T00:02:36.106Z,1011.47
2022-10-14T00:03:36.112Z,1011.51
2022-10-14T00:04:36.075Z,1011.49
2022-10-14T00:05:36.088Z,1011.51
2022-10-14T00:06:36.070Z,1011.50
2022-10-14T00:07:36.068Z,1011.49
2022-10-14T00:08:36.069Z,1011.52
2022-10-14T00:09:36.090Z,1011.49
2022-10-14T00:10:36.062Z,1011.49
2022-10-14T00:11:36.063Z,1011.49
2022-10-14T00:12:36.068Z,1011.47
2022-10-14T00:13:36.037Z,1011.44
2022-10-14T00:14:36.038Z,1011.45
2022-10-14T00:15:36.031Z,1011.43
2022-10-14T00:16:36.093Z,1011.39
2022-10-14T00:17:36.016Z,1011.41
2022-10-14T00:18:36.022Z,1011.39
2022-10-14T00:19:36.028Z,1011.36
2022-10-14T00:20:36.007Z,1011.37
2022-10-14T00:21:36.019Z,1011.36
2022-10-14T00:22:36.016Z,1011.37
2022-10-14T00:23:36.002Z,1011.34
2022-10-14T00:24:36.028Z,1011.41
2022-10-14T00:25:35.990Z,1011.40
2022-10-14T00:26:35.983Z,1011.42
2022-10-14T00:27:35.987Z,1011.41
2022-10-14T00:28:36.014Z,1011.39
2022-10-14T00:29:35.979Z,1011.39
2022-10-14T00:30:35.969Z,1011.39
2022-10-14T00:31:35.993Z,1011.39
2022-10-14T00:32:35.964Z,1011.36
2022-10-14T00:33:35.953Z,1011.36
2022-10-14T00:34:35.952Z,1011.34
2022-10-14T00:35:36.033Z,1011.31
2022-10-14T00:36:35.938Z,1011.38
2022-10-14T00:37:35.942Z,1011.32
2022-10-14T00:38:35.943Z,1011.32
2022-10-14T00:39:35.953Z,1011.31
2022-10-14T00:40:35.947Z,1011.32
2022-10-14T00:41:35.931Z,1011.32
2022-10-14T00:42:35.911Z,1011.32
2022-10-14T00:43:35.913Z,1011.27
2022-10-14T00:44:35.912Z,1011.32
2022-10-14T00:45:35.904Z,1011.32
2022-10-14T00:46:35.901Z,1011.27
2022-10-14T00:47:35.922Z,1011.29
2022-10-14T00:48:35.926Z,1011.27
2022-10-14T00:49:35.907Z,1011.26
2022-10-14T00:50:35.881Z,1011.30
2022-10-14T00:51:35.877Z,1011.28
2022-10-14T00:52:35.875Z,1011.26
2022-10-14T00:53:35.868Z,1011.28
2022-10-14T00:54:35.906Z,1011.29
2022-10-14T00:55:35.872Z,1011.27
2022-10-14T00:56:35.866Z,1011.25
2022-10-14T00:57:35.890Z,1011.30
2022-10-14T00:58:35.855Z,1011.31
2022-10-14T00:59:35.869Z,1011.25
2022-10-14T01:00:35.871Z,1011.29
2022-10-14T01:01:35.845Z,1011.30
2022-10-14T01:02:35.945Z,1011.26
2022-10-14T01:03:35.873Z,1011.25
2022-10-14T01:04:35.853Z,1011.25
2022-10-14T01:05:35.899Z,1011.25
2022-10-14T01:06:35.821Z,1011.29
2022-10-14T01:07:35.836Z,1011.27
2022-10-14T01:08:35.858Z,1011.26
2022-10-14T01:09:35.806Z,1011.28
2022-10-14T01:10:35.798Z,1011.22
2022-10-14T01:11:35.819Z,1011.26
2022-10-14T01:12:35.803Z,1011.24
2022-10-14T01:13:35.904Z,1011.23
2022-10-14T01:14:35.795Z,1011.26
2022-10-14T01:15:35.803Z,1011.21
2022-10-14T01:16:35.943Z,1011.18
2022-10-14T01:17:35.766Z,1011.21
2022-10-14T01:18:35.754Z,1011.18
2022-10-14T01:19:35.772Z,1011.16
2022-10-14T01:20:35.755Z,1011.15
2022-10-14T01:21:35.761Z,1011.16
2022-10-14T01:22:35.746Z,1011.18
2022-10-14T01:23:35.743Z,1011.13
2022-10-14T01:24:35.745Z,1011.17
2022-10-14T01:25:35.752Z,1011.17
2022-10-14T01:26:35.723Z,1011.11
2022-10-14T01:27:35.752Z,1011.16
2022-10-14T01:28:35.816Z,1011.14
2022-10-14T01:29:35.719Z,1011.16
2022-10-14T01:30:35.712Z,1011.16
2022-10-14T01:31:35.699Z,1011.13
2022-10-14T01:32:35.723Z,1011.17
2022-10-14T01:33:35.709Z,1011.18
2022-10-14T01:34:35.691Z,1011.13
2022-10-14T01:35:35.694Z,1011.14
2022-10-14T01:36:35.686Z,1011.15
2022-10-14T01:37:35.699Z,1011.12
2022-10-14T01:38:35.719Z,1011.08
2022-10-14T01:39:35.691Z,1011.06
2022-10-14T01:40:35.672Z,1011.02
2022-10-14T01:41:35.670Z,1011.04
2022-10-14T01:42:35.680Z,1011.01
2022-10-14T01:43:35.663Z,1010.97
2022-10-14T01:44:35.640Z,1011.01
2022-10-14T01:45:35.635Z,1010.99
2022-10-14T01:46:35.633Z,1011.00
2022-10-14T01:47:35.638Z,1011.03
2022-10-14T01:48:35.673Z,1011.05
2022-10-14T01:49:35.634Z,1011.08
2022-10-14T01:50:35.634Z,1011.13
2022-10-14T01:51:35.632Z,1011.09
2022-10-14T01:52:35.622Z,1011.07
2022-10-14T01:53:35.617Z,1011.05
2022-10-14T01:54:35.639Z,1011.07
2022-10-14T01:55:35.599Z,1011.06
2022-10-14T01:56:39.635Z,1011.01
2022-10-14T01:57:35.588Z,1011.03
2022-10-14T01:58:35.589Z,1011.05
2022-10-14T01:59:35.593Z,1011.06
2022-10-14T02:00:35.583Z,1011.09
2022-10-14T02:01:35.620Z,1011.08
2022-10-14T02:02:35.573Z,1011.10
2022-10-14T02:03:35.592Z,1011.03
2022-10-14T02:04:35.557Z,1011.04
2022-10-14T02:05:35.553Z,1011.07
2022-10-14T02:06:35.554Z,1011.03
2022-10-14T02:07:35.560Z,1011.03
2022-10-14T02:08:35.551Z,1011.03
2022-10-14T02:09:35.539Z,1011.04
2022-10-14T02:10:35.545Z,1011.02
2022-10-14T02:11:35.534Z,1011.00
2022-10-14T02:12:35.524Z,1011.01
2022-10-14T02:13:35.516Z,1011.00
2022-10-14T02:14:35.528Z,1011.05
2022-10-14T02:15:35.502Z,1011.05
2022-10-14T02:16:35.515Z,1011.03
2022-10-14T02:17:35.514Z,1011.05
2022-10-14T02:18:35.517Z,1011.03
2022-10-14T02:19:35.487Z,1011.07
2022-10-14T02:20:35.489Z,1011.15
2022-10-14T02:21:35.477Z,1011.17
2022-10-14T02:22:35.471Z,1011.13
2022-10-14T02:23:35.515Z,1011.16
2022-10-14T02:24:35.472Z,1011.16
2022-10-14T02:25:35.475Z,1011.16
2022-10-14T02:26:35.467Z,1011.20
2022-10-14T02:27:35.455Z,1011.20
2022-10-14T02:28:35.529Z,1011.21
2022-10-14T02:29:35.440Z,1011.15
2022-10-14T02:30:35.451Z,1011.15
2022-10-14T02:31:35.432Z,1011.16
2022-10-14T02:32:35.434Z,1011.14
2022-10-14T02:33:35.429Z,1011.18
2022-10-14T02:34:35.454Z,1011.15
2022-10-14T02:35:35.418Z,1011.13
2022-10-14T02:36:35.440Z,1011.13
2022-10-14T02:37:35.414Z,1011.11
2022-10-14T02:38:35.398Z,1011.10
2022-10-14T02:39:35.413Z,1011.10
2022-10-14T02:40:35.397Z,1011.12
2022-10-14T02:41:35.385Z,1011.12
2022-10-14T02:42:35.386Z,1011.12
2022-10-14T02:43:35.391Z,1011.11
2022-10-14T02:44:35.387Z,1011.10
2022-10-14T02:45:35.389Z,1011.08
2022-10-14T02:46:35.376Z,1011.09
2022-10-14T02:47:35.391Z,1011.11
2022-10-14T02:48:35.348Z,1011.11
2022-10-14T02:49:35.373Z,1011.08
2022-10-14T02:50:35.349Z,1011.12
2022-10-14T02:51:35.335Z,1011.11
2022-10-14T02:52:35.346Z,1011.11
2022-10-14T02:53:35.354Z,1011.10
2022-10-14T02:54:35.329Z,1011.08
2022-10-14T02:55:35.323Z,1011.11
2022-10-14T02:56:35.346Z,1011.09
2022-10-14T02:57:35.333Z,1011.06
2022-10-14T02:58:35.304Z,1011.12
2022-10-14T02:59:35.302Z,1011.10
2022-10-14T03:00:35.298Z,1011.11
2022-10-14T03:01:37.763Z,1011.10
2022-10-14T03:02:35.294Z,1011.05
2022-10-14T03:03:35.309Z,1011.03
2022-10-14T03:04:35.311Z,1011.02
2022-10-14T03:05:35.290Z,1011.02
2022-10-14T03:06:35.279Z,1011.02
2022-10-14T03:07:35.264Z,1010.97
2022-10-14T03:08:35.259Z,1010.95
2022-10-14T03:09:35.256Z,1010.92
2022-10-14T03:10:35.260Z,1010.87
2022-10-14T03:11:35.267Z,1010.82
2022-10-14T03:12:35.269Z,1010.81
2022-10-14T03:13:35.285Z,1010.80
2022-10-14T03:14:35.303Z,1010.84
2022-10-14T03:15:35.225Z,1010.82
2022-10-14T03:16:35.237Z,1010.78
2022-10-14T03:17:35.302Z,1010.82
2022-10-14T03:18:35.217Z,1010.81
2022-10-14T03:19:35.214Z,1010.80
2022-10-14T03:20:35.222Z,1010.81
2022-10-14T03:21:35.224Z,1010.80
2022-10-14T03:22:35.233Z,1010.82
2022-10-14T03:23:35.190Z,1010.80
2022-10-14T03:24:35.189Z,1010.78
2022-10-14T03:25:35.190Z,1010.78
2022-10-14T03:26:35.191Z,1010.75
2022-10-14T03:27:35.177Z,1010.80
2022-10-14T03:28:35.231Z,1010.75
2022-10-14T03:29:35.171Z,1010.74
2022-10-14T03:30:35.192Z,1010.77
2022-10-14T03:31:35.198Z,1010.77
2022-10-14T03:32:35.159Z,1010.77
2022-10-14T03:33:35.159Z,1010.79
2022-10-14T03:34:35.148Z,1010.81
2022-10-14T03:35:35.143Z,1010.79
2022-10-14T03:36:35.134Z,1010.76
2022-10-14T03:37:35.132Z,1010.74
2022-10-14T03:38:35.135Z,1010.72
2022-10-14T03:39:35.135Z,1010.71
2022-10-14T03:40:35.143Z,1010.72
2022-10-14T03:41:35.108Z,1010.76
2022-10-14T03:42:35.104Z,1010.74
2022-10-14T03:43:35.106Z,1010.74
2022-10-14T03:44:35.102Z,1010.73
2022-10-14T03:45:35.097Z,1010.77
2022-10-14T03:46:35.119Z,1010.76
2022-10-14T03:47:35.099Z,1010.75
2022-10-14T03:48:35.111Z,1010.80
2022-10-14T03:49:35.108Z,1010.81
2022-10-14T03:50:35.080Z,1010.81
2022-10-14T03:51:35.089Z,1010.76
2022-10-14T03:52:35.073Z,1010.79
2022-10-14T03:53:35.055Z,1010.72
2022-10-14T03:54:35.072Z,1010.74
2022-10-14T03:55:35.066Z,1010.73
2022-10-14T03:56:35.067Z,1010.74
2022-10-14T03:57:35.061Z,1010.78
2022-10-14T03:58:35.063Z,1010.76
2022-10-14T03:59:35.037Z,1010.75
2022-10-14T04:00:35.041Z,1010.73
2022-10-14T04:01:35.081Z,1010.71
2022-10-14T04:02:35.027Z,1010.69
2022-10-14T04:03:35.018Z,1010.69
2022-10-14T04:04:35.019Z,1010.65
2022-10-14T04:05:35.040Z,1010.71
2022-10-14T04:06:35.029Z,1010.69
2022-10-14T04:07:35.039Z,1010.71
2022-10-14T04:08:35.052Z,1010.69
2022-10-14T04:09:35.039Z,1010.72
2022-10-14T04:10:35.002Z,1010.74
2022-10-14T04:11:34.972Z,1010.72
2022-10-14T04:12:34.993Z,1010.70
2022-10-14T04:13:34.993Z,1010.71
2022-10-14T04:14:34.981Z,1010.68
2022-10-14T04:15:34.968Z,1010.72
2022-10-14T04:16:34.984Z,1010.68
2022-10-14T04:17:34.988Z,1010.68
2022-10-14T04:18:34.995Z,1010.70
2022-10-14T04:19:34.946Z,1010.70
2022-10-14T04:20:34.946Z,1010.65
2022-10-14T04:21:34.949Z,1010.69
2022-10-14T04:22:34.944Z,1010.68
2022-10-14T04:23:34.935Z,1010.67
2022-10-14T04:24:34.947Z,1010.65
2022-10-14T04:25:34.944Z,1010.62
2022-10-14T04:26:34.924Z,1010.60
2022-10-14T04:27:34.942Z,1010.61
2022-10-14T04:28:34.982Z,1010.60
2022-10-14T04:29:34.931Z,1010.62
2022-10-14T04:30:34.904Z,1010.54
2022-10-14T04:31:34.908Z,1010.57
2022-10-14T04:32:34.902Z,1010.58
2022-10-14T04:33:34.898Z,1010.55
2022-10-14T04:34:34.893Z,1010.50
2022-10-14T04:35:34.875Z,1010.51
2022-10-14T04:36:34.875Z,1010.51
2022-10-14T04:37:34.879Z,1010.47
2022-10-14T04:38:34.867Z,1010.45
2022-10-14T04:39:34.852Z,1010.46
2022-10-14T04:40:34.866Z,1010.41
2022-10-14T04:41:34.857Z,1010.43
2022-10-14T04:42:34.872Z,1010.48
2022-10-14T04:43:34.867Z,1010.50
2022-10-14T04:44:34.834Z,1010.49
2022-10-14T04:45:34.821Z,1010.49
2022-10-14T04:46:34.869Z,1010.51
2022-10-14T04:47:34.819Z,1010.54
2022-10-14T04:48:34.837Z,1010.56
2022-10-14T04:49:34.832Z,1010.49
2022-10-14T04:50:34.802Z,1010.48
2022-10-14T04:51:34.819Z,1010.50
2022-10-14T04:52:34.796Z,1010.47
2022-10-14T04:53:34.791Z,1010.46
2022-10-14T04:54:34.788Z,1010.45
2022-10-14T04:55:34.775Z,1010.42
2022-10-14T04:56:34.778Z,1010.41
2022-10-14T04:57:34.791Z,1010.38
2022-10-14T04:58:34.788Z,1010.39
2022-10-14T04:59:34.787Z,1010.40
2022-10-14T05:00:34.774Z,1010.39
2022-10-14T05:01:34.807Z,1010.41
2022-10-14T05:02:34.739Z,1010.45
2022-10-14T05:03:34.747Z,1010.40
2022-10-14T05:04:34.761Z,1010.45
2022-10-14T05:05:34.741Z,1010.43
2022-10-14T05:06:34.750Z,1010.40
2022-10-14T05:07:34.751Z,1010.42
2022-10-14T05:08:34.743Z,1010.39
2022-10-14T05:09:34.744Z,1010.42
2022-10-14T05:10:34.741Z,1010.38
2022-10-14T05:11:34.742Z,1010.42
2022-10-14T05:12:34.707Z,1010.44
2022-10-14T05:13:34.699Z,1010.41
2022-10-14T05:14:34.708Z,1010.44
2022-10-14T05:15:34.699Z,1010.48
2022-10-14T05:16:34.684Z,1010.45
2022-10-14T05:17:34.680Z,1010.46
2022-10-14T05:18:34.671Z,1010.46
2022-10-14T05:19:34.674Z,1010.46
2022-10-14T05:20:34.704Z,1010.43
2022-10-14T05:21:34.666Z,1010.40
2022-10-14T05:22:34.658Z,1010.37
2022-10-14T05:23:34.661Z,1010.40
2022-10-14T05:24:34.659Z,1010.37
2022-10-14T05:25:34.664Z,1010.41
2022-10-14T05:26:34.696Z,1010.41
2022-10-14T05:27:34.644Z,1010.42
2022-10-14T05:28:34.675Z,1010.40
2022-10-14T05:29:34.634Z,1010.41
2022-10-14T05:30:35.066Z,1010.43
2022-10-14T05:31:34.666Z,1010.41
2022-10-14T05:32:34.640Z,1010.42
2022-10-14T05:33:34.615Z,1010.36
2022-10-14T05:34:34.622Z,1010.37
2022-10-14T05:35:57.538Z,1010.34
2022-10-14T05:36:34.602Z,1010.34
2022-10-14T05:37:34.610Z,1010.39
2022-10-14T05:38:34.601Z,1010.37
2022-10-14T05:39:34.579Z,1010.34
2022-10-14T05:40:34.577Z,1010.33
2022-10-14T05:41:34.572Z,1010.32
2022-10-14T05:42:34.591Z,1010.30
2022-10-14T05:43:34.583Z,1010.29
2022-10-14T05:44:34.582Z,1010.34
2022-10-14T05:45:34.590Z,1010.31
2022-10-14T05:46:34.557Z,1010.31
2022-10-14T05:47:34.545Z,1010.29
2022-10-14T05:48:34.535Z,1010.33
2022-10-14T05:49:34.532Z,1010.34
2022-10-14T05:50:34.534Z,1010.32
2022-10-14T05:51:34.546Z,1010.34
2022-10-14T05:52:34.535Z,1010.31
2022-10-14T05:53:34.548Z,1010.36
2022-10-14T05:54:34.534Z,1010.39
2022-10-14T05:55:34.507Z,1010.37
2022-10-14T05:56:34.506Z,1010.38
2022-10-14T05:57:34.507Z,1010.35
2022-10-14T05:58:34.538Z,1010.33
2022-10-14T05:59:34.508Z,1010.38
2022-10-14T06:00:34.513Z,1010.36
2022-10-14T06:01:34.512Z,1010.37
2022-10-14T06:02:34.508Z,1010.35
2022-10-14T06:03:34.522Z,1010.39
2022-10-14T06:04:34.480Z,1010.35
2022-10-14T06:05:34.486Z,1010.36
2022-10-14T06:06:34.478Z,1010.37
2022-10-14T06:07:34.471Z,1010.34
2022-10-14T06:08:34.489Z,1010.34
2022-10-14T06:09:34.463Z,1010.38
2022-10-14T06:10:34.463Z,1010.40
2022-10-14T06:11:34.491Z,1010.40
2022-10-14T06:12:34.480Z,1010.41
2022-10-14T06:13:34.472Z,1010.39
2022-10-14T06:14:34.479Z,1010.41
2022-10-14T06:15:34.429Z,1010.39
2022-10-14T06:16:34.428Z,1010.37
2022-10-14T06:17:34.462Z,1010.40
2022-10-14T06:18:34.424Z,1010.39
2022-10-14T06:19:34.415Z,1010.40
2022-10-14T06:20:34.413Z,1010.37
2022-10-14T06:21:34.420Z,1010.36
2022-10-14T06:22:34.393Z,1010.39
2022-10-14T06:23:34.401Z,1010.38
2022-10-14T06:24:34.401Z,1010.41
2022-10-14T06:25:34.387Z,1010.41
2022-10-14T06:26:34.385Z,1010.35
2022-10-14T06:27:34.398Z,1010.33
2022-10-14T06:28:34.411Z,1010.35
2022-10-14T06:29:34.422Z,1010.32
2022-10-14T06:30:34.395Z,1010.34
2022-10-14T06:31:34.400Z,1010.35
2022-10-14T06:32:34.363Z,1010.31
2022-10-14T06:33:34.359Z,1010.32
2022-10-14T06:34:34.347Z,1010.37
2022-10-14T06:35:34.369Z,1010.33
2022-10-14T06:36:34.348Z,1010.31
2022-10-14T06:37:34.347Z,1010.34
2022-10-14T06:38:34.354Z,1010.36
2022-10-14T06:39:34.342Z,1010.33
2022-10-14T06:40:34.365Z,1010.32
2022-10-14T06:41:34.333Z,1010.34
2022-10-14T06:42:34.408Z,1010.35
2022-10-14T06:43:34.308Z,1010.34
2022-10-14T06:44:34.313Z,1010.34
2022-10-14T06:45:34.303Z,1010.37
2022-10-14T06:46:34.331Z,1010.40
2022-10-14T06:47:34.299Z,1010.41
2022-10-14T06:48:34.293Z,1010.36
2022-10-14T06:49:34.289Z,1010.40
2022-10-14T06:50:34.293Z,1010.38
2022-10-14T06:51:34.282Z,1010.42
2022-10-14T06:52:34.279Z,1010.47
2022-10-14T06:53:34.283Z,1010.44
2022-10-14T06:54:38.864Z,1010.46
2022-10-14T06:55:34.271Z,1010.47
2022-10-14T06:56:34.300Z,1010.48
2022-10-14T06:57:34.269Z,1010.51
2022-10-14T06:58:34.260Z,1010.49
2022-10-14T06:59:34.261Z,1010.48
2022-10-14T07:00:34.329Z,1010.48
2022-10-14T07:01:34.291Z,1010.49
2022-10-14T07:02:34.258Z,1010.48
2022-10-14T07:03:34.237Z,1010.50
2022-10-14T07:04:34.225Z,1010.49
2022-10-14T07:05:34.237Z,1010.46
2022-10-14T07:06:34.226Z,1010.48
2022-10-14T07:07:34.294Z,1010.44
2022-10-14T07:08:34.238Z,1010.53
2022-10-14T07:09:34.215Z,1010.54
2022-10-14T07:10:34.207Z,1010.55
2022-10-14T07:11:34.207Z,1010.56
2022-10-14T07:12:34.203Z,1010.56
2022-10-14T07:13:34.203Z,1010.59
2022-10-14T07:14:34.190Z,1010.57
2022-10-14T07:15:36.316Z,1010.53
2022-10-14T07:16:34.181Z,1010.56
2022-10-14T07:17:34.177Z,1010.58
2022-10-14T07:18:34.176Z,1010.59
2022-10-14T07:19:34.175Z,1010.59
2022-10-14T07:20:34.184Z,1010.57
2022-10-14T07:21:34.155Z,1010.57
2022-10-14T07:22:38.418Z,1010.63
2022-10-14T07:23:34.169Z,1010.60
2022-10-14T07:24:34.154Z,1010.65
2022-10-14T07:25:34.153Z,1010.62
2022-10-14T07:26:34.137Z,1010.66
2022-10-14T07:27:34.137Z,1010.65
2022-10-14T07:28:34.320Z,1010.64
2022-10-14T07:29:34.131Z,1010.67
2022-10-14T07:30:34.142Z,1010.66
2022-10-14T07:31:34.133Z,1010.67
2022-10-14T07:32:34.120Z,1010.64
2022-10-14T07:33:34.240Z,1010.69
2022-10-14T07:34:34.112Z,1010.66
2022-10-14T07:35:34.139Z,1010.69
2022-10-14T07:36:34.103Z,1010.71
2022-10-14T07:37:34.116Z,1010.72
2022-10-14T07:38:34.107Z,1010.72
2022-10-14T07:39:34.136Z,1010.73
2022-10-14T07:40:34.097Z,1010.71
2022-10-14T07:41:34.090Z,1010.72
2022-10-14T07:42:34.089Z,1010.73
2022-10-14T07:44:34.133Z,1010.69
2022-10-14T07:45:34.131Z,1010.66
2022-10-14T07:46:34.116Z,1010.64
2022-10-14T07:47:34.116Z,1010.61
2022-10-14T07:48:45.277Z,1010.55
2022-10-14T07:49:34.112Z,1010.56
2022-10-14T07:50:35.116Z,1010.58
2022-10-14T07:51:34.101Z,1010.60
2022-10-14T07:52:34.102Z,1010.63
2022-10-14T07:53:34.102Z,1010.70
2022-10-14T07:54:34.102Z,1010.68
2022-10-14T07:55:34.098Z,1010.70
2022-10-14T07:56:35.149Z,1010.72
2022-10-14T07:57:34.085Z,1010.74
2022-10-14T07:58:34.076Z,1010.73
2022-10-14T07:59:34.083Z,1010.71
2022-10-14T08:00:34.090Z,1010.70
2022-10-14T08:01:34.091Z,1010.69
2022-10-14T08:02:35.090Z,1010.64
2022-10-14T08:03:34.070Z,1010.64
2022-10-14T08:04:34.074Z,1010.61
2022-10-14T08:05:38.222Z,1010.62
2022-10-14T08:06:34.071Z,1010.62
2022-10-14T08:07:34.058Z,1010.63
2022-10-14T08:08:35.076Z,1010.66
2022-10-14T08:09:34.052Z,1010.66
2022-10-14T08:10:34.043Z,1010.62
2022-10-14T08:11:34.028Z,1010.63
2022-10-14T08:12:34.036Z,1010.67
2022-10-14T08:13:34.039Z,1010.67
2022-10-14T08:14:35.037Z,1010.68
2022-10-14T08:15:34.021Z,1010.73
2022-10-14T08:16:34.025Z,1010.72
2022-10-14T08:17:34.037Z,1010.74
2022-10-14T08:18:34.043Z,1010.76
2022-10-14T08:19:34.037Z,1010.79
2022-10-14T08:20:35.067Z,1010.78
2022-10-14T08:21:34.012Z,1010.77
2022-10-14T08:22:34.023Z,1010.79
2022-10-14T08:23:34.015Z,1010.75
2022-10-14T08:24:34.018Z,1010.77
2022-10-14T08:25:34.020Z,1010.77
2022-10-14T08:26:35.053Z,1010.74
2022-10-14T08:27:34.021Z,1010.68
2022-10-14T08:28:34.117Z,1010.78
2022-10-14T08:29:34.056Z,1010.74
2022-10-14T08:30:34.040Z,1010.81
2022-10-14T08:31:34.027Z,1010.74
2022-10-14T08:32:35.045Z,1010.75
2022-10-14T08:33:34.009Z,1010.70
2022-10-14T08:34:34.018Z,1010.69
2022-10-14T08:35:34.018Z,1010.65
2022-10-14T08:36:34.030Z,1010.65
2022-10-14T08:37:34.026Z,1010.61
2022-10-14T08:38:35.063Z,1010.63
2022-10-14T08:39:34.072Z,1010.60
2022-10-14T08:40:34.049Z,1010.60
2022-10-14T08:41:34.060Z,1010.68
2022-10-14T08:42:34.050Z,1010.66
2022-10-14T08:43:34.066Z,1010.63
2022-10-14T08:44:35.081Z,1010.66
2022-10-14T08:45:34.077Z,1010.62
2022-10-14T08:46:34.069Z,1010.58
2022-10-14T08:47:34.085Z,1010.57
2022-10-14T08:48:34.085Z,1010.59
2022-10-14T08:49:34.096Z,1010.64
2022-10-14T08:50:35.111Z,1010.60
2022-10-14T08:51:34.095Z,1010.55
2022-10-14T08:52:37.547Z,1010.54
2022-10-14T08:53:34.108Z,1010.55
2022-10-14T08:54:34.105Z,1010.56
2022-10-14T08:55:34.108Z,1010.51
2022-10-14T08:56:35.116Z,1010.46
2022-10-14T08:57:34.106Z,1010.45
2022-10-14T08:58:34.115Z,1010.48
2022-10-14T08:59:34.124Z,1010.45
2022-10-14T09:00:34.134Z,1010.42
2022-10-14T09:01:34.215Z,1010.38
2022-10-14T09:02:35.145Z,1010.41
2022-10-14T09:03:34.128Z,1010.37
2022-10-14T09:04:34.127Z,1010.39
2022-10-14T09:05:34.117Z,1010.38
2022-10-14T09:06:34.124Z,1010.41
2022-10-14T09:07:34.132Z,1010.41
2022-10-14T09:08:35.145Z,1010.47
2022-10-14T09:09:34.135Z,1010.48
2022-10-14T09:10:34.137Z,1010.46
2022-10-14T09:11:34.506Z,1010.47
2022-10-14T09:12:34.168Z,1010.47
2022-10-14T09:13:34.128Z,1010.47
2022-10-14T09:14:35.161Z,1010.45
2022-10-14T09:15:34.128Z,1010.49
2022-10-14T09:16:34.129Z,1010.51
2022-10-14T09:17:37.021Z,1010.47
2022-10-14T09:18:34.139Z,1010.45
2022-10-14T09:19:34.139Z,1010.45
2022-10-14T09:20:35.156Z,1010.44
2022-10-14T09:21:51.702Z,1010.44
2022-10-14T09:22:34.146Z,1010.40
2022-10-14T09:23:34.133Z,1010.41
2022-10-14T09:24:34.133Z,1010.40
2022-10-14T09:25:34.129Z,1010.37
2022-10-14T09:26:35.149Z,1010.40
2022-10-14T09:27:34.235Z,1010.38
2022-10-14T09:28:34.180Z,1010.37
2022-10-14T09:29:34.152Z,1010.33
2022-10-14T09:30:34.162Z,1010.34
2022-10-14T09:32:35.146Z,1010.30
2022-10-14T09:33:37.104Z,1010.33
2022-10-14T09:34:34.145Z,1010.32
2022-10-14T09:35:34.120Z,1010.32
2022-10-14T09:36:34.126Z,1010.27
2022-10-14T09:37:34.150Z,1010.28
2022-10-14T09:38:35.133Z,1010.24
2022-10-14T09:39:34.125Z,1010.28
2022-10-14T09:40:34.121Z,1010.25
2022-10-14T09:41:34.154Z,1010.26
2022-10-14T09:42:34.132Z,1010.29
2022-10-14T09:43:34.212Z,1010.23
2022-10-14T09:44:35.148Z,1010.20
2022-10-14T09:45:34.112Z,1010.21
2022-10-14T09:46:34.130Z,1010.19
2022-10-14T09:47:34.131Z,1010.15
2022-10-14T09:48:34.144Z,1010.21
2022-10-14T09:49:34.115Z,1010.25
2022-10-14T09:50:35.130Z,1010.22
2022-10-14T09:51:34.119Z,1010.19
2022-10-14T09:52:34.137Z,1010.20
2022-10-14T09:53:34.126Z,1010.13
2022-10-14T09:54:34.119Z,1010.13
2022-10-14T09:55:34.118Z,1010.15
2022-10-14T09:56:39.040Z,1010.17
2022-10-14T09:57:34.134Z,1010.14
2022-10-14T09:58:34.113Z,1010.16
2022-10-14T09:59:34.137Z,1010.14
2022-10-14T10:00:34.122Z,1010.10
2022-10-14T10:01:34.115Z,1010.11
2022-10-14T10:02:35.125Z,1010.10
2022-10-14T10:03:34.113Z,1010.07
2022-10-14T10:04:34.124Z,1010.07
2022-10-14T10:05:34.108Z,1010.06
2022-10-14T10:06:34.108Z,1010.07
2022-10-14T10:07:34.109Z,1010.07
2022-10-14T10:08:35.122Z,1010.02
2022-10-14T10:09:34.112Z,1010.03
2022-10-14T10:10:34.110Z,1010.02
2022-10-14T10:11:34.127Z,1010.02
2022-10-14T10:12:34.105Z,1010.02
2022-10-14T10:13:34.108Z,1010.03
2022-10-14T10:14:35.116Z,1010.02
2022-10-14T10:15:34.106Z,1010.03
2022-10-14T10:16:34.112Z,1010.06
2022-10-14T10:17:34.106Z,1010.03
2022-10-14T10:18:34.108Z,1010.04
2022-10-14T10:19:34.107Z,1009.98
2022-10-14T10:20:35.124Z,1009.98
2022-10-14T10:21:34.105Z,1010.02
2022-10-14T10:22:34.109Z,1010.03
2022-10-14T10:23:34.083Z,1010.03
2022-10-14T10:24:34.095Z,1010.03
2022-10-14T10:25:34.099Z,1010.06
2022-10-14T10:26:35.122Z,1010.04
2022-10-14T10:27:34.082Z,1010.05
2022-10-14T10:28:34.114Z,1010.03
2022-10-14T10:29:34.093Z,1010.03
2022-10-14T10:30:34.091Z,1009.93
2022-10-14T10:31:34.273Z,1009.92
2022-10-14T10:32:35.106Z,1009.88
2022-10-14T10:33:34.086Z,1009.88
2022-10-14T10:34:34.107Z,1009.89
2022-10-14T10:35:34.084Z,1009.92
2022-10-14T10:36:34.161Z,1009.91
2022-10-14T10:37:34.090Z,1009.93
2022-10-14T10:38:35.106Z,1009.96
2022-10-14T10:39:34.078Z,1009.97
2022-10-14T10:40:34.138Z,1009.99
2022-10-14T10:41:34.079Z,1010.02
2022-10-14T10:42:34.082Z,1009.98
2022-10-14T10:43:34.107Z,1009.99
2022-10-14T10:44:35.078Z,1009.97
2022-10-14T10:45:36.538Z,1009.92
2022-10-14T10:46:34.127Z,1009.95
2022-10-14T10:47:34.068Z,1009.96
2022-10-14T10:48:34.072Z,1009.95
2022-10-14T10:49:34.098Z,1009.96
2022-10-14T10:50:35.078Z,1009.89
2022-10-14T10:51:34.070Z,1009.90
2022-10-14T10:52:34.106Z,1009.94
2022-10-14T10:53:34.080Z,1009.92
2022-10-14T10:54:34.061Z,1009.90
2022-10-14T10:55:34.121Z,1009.84
2022-10-14T10:56:35.079Z,1009.86
2022-10-14T10:57:34.063Z,1009.83
2022-10-14T10:58:34.064Z,1009.85
2022-10-14T10:59:34.063Z,1009.85
2022-10-14T11:00:34.079Z,1009.87
2022-10-14T11:01:34.090Z,1009.88
2022-10-14T11:02:35.071Z,1009.90
2022-10-14T11:03:34.108Z,1009.83
2022-10-14T11:04:34.098Z,1009.85
2022-10-14T11:05:34.068Z,1009.83
2022-10-14T11:06:34.178Z,1009.85
2022-10-14T11:07:34.075Z,1009.75
2022-10-14T11:08:35.086Z,1009.82
2022-10-14T11:09:34.073Z,1009.74
2022-10-14T11:10:34.076Z,1009.72
2022-10-14T11:11:34.063Z,1009.75
2022-10-14T11:12:34.068Z,1009.74
2022-10-14T11:13:34.062Z,1009.75
2022-10-14T11:14:35.088Z,1009.74
2022-10-14T11:15:34.058Z,1009.82
2022-10-14T11:16:34.060Z,1009.78
2022-10-14T11:17:34.094Z,1009.78
2022-10-14T11:18:34.080Z,1009.77
2022-10-14T11:19:34.046Z,1009.69
2022-10-14T11:20:35.070Z,1009.71
2022-10-14T11:21:34.080Z,1009.69
2022-10-14T11:22:34.074Z,1009.69
2022-10-14T11:23:34.067Z,1009.68
2022-10-14T11:24:34.058Z,1009.63
2022-10-14T11:25:34.054Z,1009.68
2022-10-14T11:27:34.063Z,1009.66
2022-10-14T11:28:34.091Z,1009.66
2022-10-14T11:29:34.116Z,1009.69
2022-10-14T11:30:34.075Z,1009.65
2022-10-14T11:31:34.088Z,1009.58
2022-10-14T11:32:35.097Z,1009.56
2022-10-14T11:33:38.896Z,1009.59
2022-10-14T11:34:34.049Z,1009.53
2022-10-14T11:36:34.069Z,1009.57
2022-10-14T11:37:34.057Z,1009.56
2022-10-14T11:39:35.682Z,1009.53
2022-10-14T11:40:34.065Z,1009.48
2022-10-14T11:41:34.052Z,1009.49
2022-10-14T11:42:34.046Z,1009.44
2022-10-14T11:43:34.050Z,1009.41
2022-10-14T11:45:34.044Z,1009.43
2022-10-14T11:46:34.051Z,1009.41
2022-10-14T11:47:34.061Z,1009.39
2022-10-14T11:48:34.045Z,1009.38
2022-10-14T11:49:34.043Z,1009.40
2022-10-14T11:50:35.053Z,1009.35
2022-10-14T11:51:35.939Z,1009.35
2022-10-14T11:52:34.043Z,1009.37
2022-10-14T11:53:34.069Z,1009.34
2022-10-14T11:54:34.043Z,1009.36
2022-10-14T11:55:34.063Z,1009.32
2022-10-14T11:56:35.060Z,1009.32
2022-10-14T11:57:34.135Z,1009.30
2022-10-14T11:58:34.038Z,1009.32
2022-10-14T11:59:34.077Z,1009.29
2022-10-14T12:00:34.067Z,1009.27
2022-10-14T12:01:37.234Z,1009.25
2022-10-14T12:02:35.107Z,1009.26
2022-10-14T12:03:34.040Z,1009.25
2022-10-14T12:04:34.026Z,1009.22
2022-10-14T12:05:34.059Z,1009.25
2022-10-14T12:06:34.031Z,1009.24
2022-10-14T12:07:34.033Z,1009.25
2022-10-14T12:08:35.868Z,1009.25
2022-10-14T12:09:34.149Z,1009.21
2022-10-14T12:10:34.032Z,1009.22
2022-10-14T12:11:34.059Z,1009.24